createdAt,value
2023-03-22T00:00:15.218Z,83.20
2023-03-22T00:02:45.019Z,83.40
2023-03-22T00:05:13.327Z,83.30
2023-03-22T00:07:43.516Z,84.00
2023-03-22T00:10:12.466Z,83.20
2023-03-22T00:12:41.163Z,83.10
2023-03-22T00:15:11.295Z,83.10
2023-03-22T00:17:39.523Z,83.30
2023-03-22T00:20:12.039Z,83.20
2023-03-22T00:22:40.818Z,83.50
2023-03-22T00:25:09.566Z,83.40
2023-03-22T00:27:37.974Z,83.30
2023-03-22T00:30:07.536Z,83.20
2023-03-22T00:32:36.123Z,83.40
2023-03-22T00:35:04.491Z,83.30
2023-03-22T00:37:34.397Z,83.40
2023-03-22T00:40:04.719Z,83.50
2023-03-22T00:42:32.966Z,83.50
2023-03-22T00:45:01.310Z,83.50
2023-03-22T00:47:29.540Z,83.50
2023-03-22T00:49:57.832Z,83.60
2023-03-22T00:52:26.472Z,83.60
2023-03-22T00:54:56.048Z,83.70
2023-03-22T00:57:24.658Z,83.90
2023-03-22T00:59:54.012Z,83.90
2023-03-22T01:02:29.905Z,83.90
2023-03-22T01:04:58.182Z,83.80
2023-03-22T01:07:26.433Z,83.80
2023-03-22T01:09:56.028Z,83.80
2023-03-22T01:12:24.380Z,83.80
2023-03-22T01:14:52.600Z,83.80
2023-03-22T01:17:20.828Z,83.90
2023-03-22T01:19:49.060Z,84.00
2023-03-22T01:22:17.279Z,84.00
2023-03-22T01:24:45.484Z,84.00
2023-03-22T01:27:15.073Z,84.20
2023-03-22T01:29:43.661Z,84.20
2023-03-22T01:32:11.866Z,84.20
2023-03-22T01:34:40.358Z,84.20
2023-03-22T01:37:08.577Z,84.10
2023-03-22T01:39:36.818Z,84.10
2023-03-22T01:42:05.629Z,84.10
2023-03-22T01:44:35.352Z,84.10
2023-03-22T01:47:03.592Z,84.20
2023-03-22T01:49:35.757Z,84.20
2023-03-22T01:52:08.974Z,84.30
2023-03-22T01:54:42.932Z,84.40
2023-03-22T01:57:11.279Z,84.40
2023-03-22T01:59:43.006Z,84.10
2023-03-22T02:02:19.287Z,84.20
2023-03-22T02:04:51.043Z,84.10
2023-03-22T02:07:26.085Z,84.20
2023-03-22T02:09:54.487Z,84.20
2023-03-22T02:12:32.778Z,84.10
2023-03-22T02:15:09.788Z,84.40
2023-03-22T02:17:51.466Z,84.30
2023-03-22T02:21:02.620Z,84.50
2023-03-22T02:23:58.654Z,84.80
2023-03-22T02:26:59.341Z,84.60
2023-03-22T02:29:41.551Z,84.50
2023-03-22T02:32:34.108Z,84.50
2023-03-22T02:35:31.954Z,84.70
2023-03-22T02:38:36.781Z,84.80
2023-03-22T02:41:13.985Z,84.80
2023-03-22T02:43:52.892Z,84.50
2023-03-22T02:46:26.582Z,84.40
2023-03-22T02:49:01.995Z,84.30
2023-03-22T02:51:34.845Z,84.30
2023-03-22T02:54:08.279Z,84.40
2023-03-22T02:56:42.912Z,84.20
2023-03-22T02:59:13.135Z,84.10
2023-03-22T03:01:44.795Z,84.00
2023-03-22T03:04:18.737Z,84.00
2023-03-22T03:06:51.945Z,84.20
2023-03-22T03:09:21.904Z,84.10
2023-03-22T03:11:54.087Z,84.10
2023-03-22T03:14:27.256Z,84.10
2023-03-22T03:17:18.601Z,84.00
2023-03-22T03:20:02.269Z,84.40
2023-03-22T03:22:44.007Z,84.00
2023-03-22T03:25:19.338Z,84.10
2023-03-22T03:27:57.550Z,84.00
2023-03-22T03:30:32.275Z,83.90
2023-03-22T03:33:05.670Z,83.90
2023-03-22T03:35:38.597Z,83.90
2023-03-22T03:38:11.942Z,83.90
2023-03-22T03:40:41.603Z,83.90
2023-03-22T03:43:12.137Z,84.20
2023-03-22T03:45:41.583Z,83.70
2023-03-22T03:48:12.777Z,83.80
2023-03-22T03:50:41.472Z,84.00
2023-03-22T03:53:09.928Z,84.10
2023-03-22T03:55:38.388Z,84.10
2023-03-22T03:58:06.588Z,84.20
2023-03-22T04:00:36.383Z,84.10
2023-03-22T04:03:05.799Z,84.30
2023-03-22T04:05:34.043Z,84.20
2023-03-22T04:08:02.266Z,84.30
2023-03-22T04:10:30.614Z,84.30
2023-03-22T04:12:58.822Z,84.30
2023-03-22T04:15:27.090Z,84.40
2023-03-22T04:17:56.700Z,84.60
2023-03-22T04:20:26.197Z,84.80
2023-03-22T04:22:54.457Z,84.70
2023-03-22T04:25:23.018Z,84.80
2023-03-22T04:27:51.553Z,84.80
2023-03-22T04:30:20.342Z,85.50
2023-03-22T04:32:49.148Z,84.70
2023-03-22T04:35:19.745Z,84.80
2023-03-22T04:37:48.869Z,85.60
2023-03-22T04:40:17.523Z,84.80
2023-03-22T04:42:46.176Z,84.70
2023-03-22T04:45:15.508Z,84.80
2023-03-22T04:47:43.716Z,84.90
2023-03-22T04:50:12.224Z,84.80
2023-03-22T04:52:41.825Z,84.80
2023-03-22T04:55:10.578Z,84.90
2023-03-22T04:57:38.776Z,84.80
2023-03-22T05:00:10.052Z,84.70
2023-03-22T05:02:41.490Z,84.70
2023-03-22T05:05:10.125Z,84.70
2023-03-22T05:07:39.260Z,84.70
2023-03-22T05:10:10.225Z,84.70
2023-03-22T05:12:38.423Z,84.80
2023-03-22T05:15:07.870Z,84.70
2023-03-22T05:17:36.089Z,84.70
2023-03-22T05:20:09.483Z,84.60
2023-03-22T05:22:40.773Z,84.70
2023-03-22T05:25:11.816Z,84.70
2023-03-22T05:27:40.015Z,84.90
2023-03-22T05:30:09.932Z,84.80
2023-03-22T05:32:43.864Z,84.80
2023-03-22T05:35:12.993Z,84.90
2023-03-22T05:37:41.615Z,84.90
2023-03-22T05:40:12.629Z,84.90
2023-03-22T05:42:41.018Z,84.80
2023-03-22T05:45:10.803Z,84.80
2023-03-22T05:47:39.619Z,84.90
2023-03-22T05:50:09.592Z,84.80
2023-03-22T05:52:38.080Z,84.80
2023-03-22T05:55:07.846Z,84.80
2023-03-22T05:57:37.458Z,84.80
2023-03-22T06:00:13.392Z,84.80
2023-03-22T06:02:41.849Z,84.60
2023-03-22T06:05:12.033Z,84.50
2023-03-22T06:07:40.812Z,84.60
2023-03-22T06:10:10.799Z,84.60
2023-03-22T06:12:40.480Z,84.60
2023-03-22T06:15:09.864Z,84.50
2023-03-22T06:17:38.541Z,84.50
2023-03-22T06:20:11.279Z,84.50
2023-03-22T06:22:39.934Z,84.70
2023-03-22T06:25:11.899Z,85.40
2023-03-22T06:27:41.502Z,84.90
2023-03-22T06:30:10.768Z,85.00
2023-03-22T06:32:39.069Z,85.20
2023-03-22T06:35:08.498Z,85.50
2023-03-22T06:37:36.733Z,85.80
2023-03-22T06:40:05.955Z,86.00
2023-03-22T06:42:37.065Z,86.20
2023-03-22T06:45:08.166Z,86.20
2023-03-22T06:47:36.435Z,86.30
2023-03-22T06:50:05.070Z,86.20
2023-03-22T06:52:33.397Z,86.10
2023-03-22T06:55:01.734Z,86.10
2023-03-22T06:57:30.118Z,86.00
2023-03-22T06:59:58.378Z,86.00
2023-03-22T07:02:29.109Z,85.90
2023-03-22T07:04:57.354Z,85.80
2023-03-22T07:07:25.616Z,85.70
2023-03-22T07:09:53.973Z,85.70
2023-03-22T07:12:22.199Z,85.80
2023-03-22T07:14:50.727Z,85.70
2023-03-22T07:17:18.998Z,85.60
2023-03-22T07:19:48.990Z,85.60
2023-03-22T07:22:17.344Z,85.60
2023-03-22T07:24:56.189Z,85.60
2023-03-22T07:27:26.177Z,85.40
2023-03-22T07:29:54.395Z,85.00
2023-03-22T07:32:22.848Z,84.80
2023-03-22T07:34:52.473Z,84.90
2023-03-22T07:37:20.868Z,84.70
2023-03-22T07:39:49.080Z,84.60
2023-03-22T07:42:17.338Z,84.50
2023-03-22T07:44:47.211Z,84.10
2023-03-22T07:47:15.606Z,83.60
2023-03-22T07:49:46.163Z,83.20
2023-03-22T07:52:23.355Z,82.70
2023-03-22T07:54:52.060Z,82.20
2023-03-22T07:57:20.298Z,81.90
2023-03-22T07:59:58.157Z,81.80
2023-03-22T08:02:26.662Z,81.90
2023-03-22T08:04:56.471Z,82.00
2023-03-22T08:07:26.481Z,82.10
2023-03-22T08:09:54.710Z,82.10
2023-03-22T08:12:22.896Z,82.00
2023-03-22T08:14:53.192Z,81.20
2023-03-22T08:17:22.814Z,80.60
2023-03-22T08:19:51.411Z,80.40
2023-03-22T08:22:25.265Z,80.00
2023-03-22T08:24:54.913Z,79.60
2023-03-22T08:27:23.418Z,79.30
2023-03-22T08:29:51.762Z,79.50
2023-03-22T08:32:20.334Z,79.30
2023-03-22T08:34:49.057Z,79.10
2023-03-22T08:37:20.337Z,78.70
2023-03-22T08:39:48.972Z,78.50
2023-03-22T08:42:18.663Z,77.80
2023-03-22T08:44:47.443Z,76.50
2023-03-22T08:47:15.778Z,76.00
2023-03-22T08:49:44.176Z,75.00
2023-03-22T08:52:12.607Z,74.40
2023-03-22T08:54:41.236Z,73.60
2023-03-22T08:57:10.365Z,73.20
2023-03-22T08:59:39.948Z,73.00
2023-03-22T09:02:08.356Z,72.60
2023-03-22T09:04:36.763Z,72.90
2023-03-22T09:07:05.235Z,73.50
2023-03-22T09:09:33.835Z,73.80
2023-03-22T09:12:02.080Z,74.00
2023-03-22T09:14:30.343Z,74.40
2023-03-22T09:17:00.224Z,74.40
2023-03-22T09:19:28.616Z,73.50
2023-03-22T09:21:56.854Z,73.10
2023-03-22T09:24:25.266Z,72.60
2023-03-22T09:26:53.941Z,71.90
2023-03-22T09:29:22.165Z,71.10
2023-03-22T09:31:50.409Z,70.70
2023-03-22T09:34:20.067Z,70.20
2023-03-22T09:36:48.479Z,70.10
2023-03-22T09:39:16.762Z,70.10
2023-03-22T09:41:48.862Z,70.20
2023-03-22T09:44:23.457Z,70.80
2023-03-22T09:46:54.819Z,70.20
2023-03-22T09:49:28.186Z,69.90
2023-03-22T09:51:56.973Z,68.50
2023-03-22T09:54:32.994Z,67.80
2023-03-22T09:57:06.317Z,66.50
2023-03-22T09:59:36.604Z,66.80
2023-03-22T10:02:21.933Z,69.30
2023-03-22T10:05:01.800Z,66.80
2023-03-22T10:07:39.294Z,65.90
2023-03-22T10:10:10.916Z,66.20
2023-03-22T10:12:44.695Z,66.00
2023-03-22T10:15:17.492Z,65.70
2023-03-22T10:18:01.898Z,65.80
2023-03-22T10:20:38.184Z,65.90
2023-03-22T10:23:10.634Z,65.70
2023-03-22T10:25:43.087Z,65.80
2023-03-22T10:28:41.430Z,64.80
2023-03-22T10:31:17.659Z,64.40
2023-03-22T10:33:55.437Z,63.20
2023-03-22T10:36:27.462Z,63.00
2023-03-22T10:39:00.657Z,62.10
2023-03-22T10:41:31.100Z,61.80
2023-03-22T10:44:02.270Z,62.40
2023-03-22T10:46:34.953Z,62.90
2023-03-22T10:49:06.273Z,63.20
2023-03-22T10:51:41.500Z,62.70
2023-03-22T10:54:15.059Z,61.20
2023-03-22T10:56:44.978Z,62.20
2023-03-22T10:59:44.931Z,62.50
2023-03-22T11:02:19.907Z,62.40
2023-03-22T11:04:54.460Z,62.00
2023-03-22T11:07:32.895Z,62.50
2023-03-22T11:10:21.764Z,62.20
2023-03-22T11:12:53.389Z,62.10
2023-03-22T11:15:26.880Z,62.30
2023-03-22T11:18:00.672Z,62.60
2023-03-22T11:20:31.298Z,62.30
2023-03-22T11:23:07.003Z,61.10
2023-03-22T11:25:37.616Z,60.30
2023-03-22T11:28:16.352Z,60.60
2023-03-22T11:31:00.968Z,60.30
2023-03-22T11:33:29.705Z,59.70
2023-03-22T11:36:00.949Z,59.40
2023-03-22T11:38:36.701Z,59.10
2023-03-22T11:41:08.358Z,57.70
2023-03-22T11:43:40.842Z,57.10
2023-03-22T11:46:10.234Z,57.00
2023-03-22T11:48:41.831Z,57.30
2023-03-22T11:51:14.093Z,57.00
2023-03-22T11:53:45.292Z,56.00
2023-03-22T11:56:18.101Z,56.40
2023-03-22T11:59:00.024Z,55.60
2023-03-22T12:01:42.047Z,56.10
2023-03-22T12:04:15.446Z,55.50
2023-03-22T12:06:45.571Z,56.20
2023-03-22T12:09:24.388Z,56.10
2023-03-22T12:11:57.261Z,56.10
2023-03-22T12:14:29.868Z,56.80
2023-03-22T12:17:01.221Z,55.90
2023-03-22T12:19:43.633Z,55.70
2023-03-22T12:22:17.934Z,55.50
2023-03-22T12:24:47.368Z,55.00
2023-03-22T12:27:20.106Z,54.70
2023-03-22T12:29:54.572Z,53.90
2023-03-22T12:32:27.049Z,53.00
2023-03-22T12:35:09.109Z,52.70
2023-03-22T12:37:49.925Z,53.10
2023-03-22T12:40:25.364Z,52.80
2023-03-22T12:43:02.183Z,52.40
2023-03-22T12:45:32.889Z,52.30
2023-03-22T12:48:08.217Z,53.70
2023-03-22T12:50:40.368Z,53.00
2023-03-22T12:53:14.657Z,53.30
2023-03-22T12:55:44.624Z,52.90
2023-03-22T12:58:18.037Z,52.90
2023-03-22T13:00:49.991Z,51.90
2023-03-22T13:03:27.051Z,50.20
2023-03-22T13:06:03.249Z,49.40
2023-03-22T13:09:01.300Z,49.00
2023-03-22T13:11:30.955Z,49.30
2023-03-22T13:13:59.144Z,48.70
2023-03-22T13:16:52.412Z,47.70
2023-03-22T13:19:34.114Z,47.90
2023-03-22T13:22:27.102Z,47.70
2023-03-22T13:25:08.436Z,46.90
2023-03-22T13:27:41.811Z,46.10
2023-03-22T13:30:23.266Z,46.60
2023-03-22T13:32:56.028Z,46.40
2023-03-22T13:35:28.313Z,47.10
2023-03-22T13:38:03.875Z,46.30
2023-03-22T13:40:37.733Z,46.00
2023-03-22T13:43:28.566Z,44.70
2023-03-22T13:46:13.055Z,45.30
2023-03-22T13:48:44.862Z,45.00
2023-03-22T13:51:19.114Z,45.20
2023-03-22T13:53:56.892Z,44.90
2023-03-22T13:56:52.930Z,44.90
2023-03-22T13:59:29.918Z,45.40
2023-03-22T14:02:04.670Z,44.60
2023-03-22T14:04:39.487Z,43.10
2023-03-22T14:07:20.821Z,42.50
2023-03-22T14:09:53.309Z,43.10
2023-03-22T14:12:26.730Z,44.00
2023-03-22T14:14:59.131Z,44.50
2023-03-22T14:17:35.402Z,45.00
2023-03-22T14:20:10.516Z,44.80
